Garfield, Ohio
Current Conditions -  °F | °C
As of 3:53 AM on Monday 24 Nov 2014 (Local Time) from KBKL Reporting Station
Overcast Overcast  
Wind Chill: 59°   Ceiling: 4500
Heat Index: 59°   Visibility: 10mi
Dew Point: 53°   Wind: 21mph
Humidity: 81%   Direction: 170°S
Pressure: 29.21"   Gusts: 33mph
Location:  41.4062°N, 81.6149°W
Report Text: KBKL 240853Z AUTO 17018G29KT 10SM SCT023 SCT030 OVC045 15/12 A2921 RMK AO2 PK WND 16033/0804 RAB25E37 SLP889 P0000 60000 T01500117 56024
Loading
Personal Weather Stations






























Interactive Weather Map New forecast layout! Learn more

10-Day Weather Forecast

Advertisements
Track Severe Weather on mobile